sensor_id;sensor_type;location;lat;lon;timestamp;pressure;altitude;pressure_sealevel;temperature;humidity
16100;BME280;8154;50.830;12.082;2023-12-20T00:02:43;99086.63;;;22.61;33.69
16100;BME280;8154;50.830;12.082;2023-12-20T00:05:16;99079.66;;;22.60;33.83
16100;BME280;8154;50.830;12.082;2023-12-20T00:07:44;99072.28;;;22.62;33.64
16100;BME280;8154;50.830;12.082;2023-12-20T00:10:10;99076.75;;;22.55;33.83
16100;BME280;8154;50.830;12.082;2023-12-20T00:12:58;99069.41;;;22.57;33.71
16100;BME280;8154;50.830;12.082;2023-12-20T00:15:24;99069.41;;;22.57;33.81
16100;BME280;8154;50.830;12.082;2023-12-20T00:17:51;99061.16;;;22.52;33.90
16100;BME280;8154;50.830;12.082;2023-12-20T00:20:28;99062.44;;;22.56;33.92
16100;BME280;8154;50.830;12.082;2023-12-20T00:23:14;99048.09;;;22.57;33.81
16100;BME280;8154;50.830;12.082;2023-12-20T00:25:59;99055.06;;;22.58;33.79
16100;BME280;8154;50.830;12.082;2023-12-20T00:28:38;99058.34;;;22.60;33.69
16100;BME280;8154;50.830;12.082;2023-12-20T00:31:20;99068.19;;;22.60;33.71
16100;BME280;8154;50.830;12.082;2023-12-20T00:33:51;99058.75;;;22.57;33.67
16100;BME280;8154;50.830;12.082;2023-12-20T00:36:27;99055.06;;;22.58;33.88
16100;BME280;8154;50.830;12.082;2023-12-20T00:39:00;99043.09;;;22.41;33.75
16100;BME280;8154;50.830;12.082;2023-12-20T00:41:37;99052.19;;;22.53;33.71
16100;BME280;8154;50.830;12.082;2023-12-20T00:44:05;99052.19;;;22.53;33.84
16100;BME280;8154;50.830;12.082;2023-12-20T00:46:38;99048.28;;;22.56;33.74
16100;BME280;8154;50.830;12.082;2023-12-20T00:49:15;99039.47;;;22.55;33.88
16100;BME280;8154;50.830;12.082;2023-12-20T00:51:47;99014.59;;;22.42;33.86
16100;BME280;8154;50.830;12.082;2023-12-20T00:54:34;99037.00;;;22.54;33.93
16100;BME280;8154;50.830;12.082;2023-12-20T00:57:19;99032.06;;;22.51;33.77
16100;BME280;8154;50.830;12.082;2023-12-20T00:59:48;99041.53;;;22.53;33.80
16100;BME280;8154;50.830;12.082;2023-12-20T01:02:15;99035.38;;;22.53;33.69
16100;BME280;8154;50.830;12.082;2023-12-20T01:04:47;99040.50;;;22.54;33.89
16100;BME280;8154;50.830;12.082;2023-12-20T01:07:15;99033.34;;;22.55;33.86
16100;BME280;8154;50.830;12.082;2023-12-20T01:09:47;99032.94;;;22.58;33.72
16100;BME280;8154;50.830;12.082;2023-12-20T01:12:16;99036.63;;;22.57;33.65
16100;BME280;8154;50.830;12.082;2023-12-20T01:14:51;99026.16;;;22.55;33.72
16100;BME280;8154;50.830;12.082;2023-12-20T01:17:37;99027.38;;;22.53;33.89
16100;BME280;8154;50.830;12.082;2023-12-20T01:20:22;99023.72;;;22.60;33.62
16100;BME280;8154;50.830;12.082;2023-12-20T01:22:48;99032.94;;;22.58;33.72
16100;BME280;8154;50.830;12.082;2023-12-20T01:25:22;99034.13;;;22.55;33.78
16100;BME280;8154;50.830;12.082;2023-12-20T01:27:53;99026.97;;;22.56;33.63
16100;BME280;8154;50.830;12.082;2023-12-20T01:30:19;99024.50;;;22.54;33.88
16100;BME280;8154;50.830;12.082;2023-12-20T01:32:48;99018.56;;;22.52;33.65
16100;BME280;8154;50.830;12.082;2023-12-20T01:35:18;99010.56;;;22.52;33.91
16100;BME280;8154;50.830;12.082;2023-12-20T01:37:48;99005.88;;;22.54;33.73
16100;BME280;8154;50.830;12.082;2023-12-20T01:40:22;99008.53;;;22.54;33.90
16100;BME280;8154;50.830;12.082;2023-12-20T01:43:03;98994.38;;;22.54;33.77
16100;BME280;8154;50.830;12.082;2023-12-20T01:45:32;98992.56;;;22.54;33.91
16100;BME280;8154;50.830;12.082;2023-12-20T01:47:59;98993.59;;;22.53;33.79
16100;BME280;8154;50.830;12.082;2023-12-20T01:50:27;98994.38;;;22.47;33.72
16100;BME280;8154;50.830;12.082;2023-12-20T01:53:12;98993.19;;;22.56;33.68
16100;BME280;8154;50.830;12.082;2023-12-20T01:55:44;98982.94;;;22.53;33.85
16100;BME280;8154;50.830;12.082;2023-12-20T01:58:20;98989.72;;;22.62;33.76
16100;BME280;8154;50.830;12.082;2023-12-20T02:00:57;98986.03;;;22.57;33.90
16100;BME280;8154;50.830;12.082;2023-12-20T02:03:24;98977.63;;;22.53;33.77
16100;BME280;8154;50.830;12.082;2023-12-20T02:05:59;98979.88;;;22.56;33.81
16100;BME280;8154;50.830;12.082;2023-12-20T02:08:31;98978.84;;;22.57;33.81
16100;BME280;8154;50.830;12.082;2023-12-20T02:10:57;98981.31;;;22.59;33.78
16100;BME280;8154;50.830;12.082;2023-12-20T02:13:28;98977.00;;;22.58;33.83
16100;BME280;8154;50.830;12.082;2023-12-20T02:16:01;98975.38;;;22.57;33.73
16100;BME280;8154;50.830;12.082;2023-12-20T02:18:47;98973.91;;;22.54;33.80
16100;BME280;8154;50.830;12.082;2023-12-20T02:21:17;98974.75;;;22.55;33.80
16100;BME280;8154;50.830;12.082;2023-12-20T02:23:54;98964.28;;;22.53;33.66
16100;BME280;8154;50.830;12.082;2023-12-20T02:26:21;98973.09;;;22.60;33.65
16100;BME280;8154;50.830;12.082;2023-12-20T02:28:58;98973.50;;;22.57;33.64
16100;BME280;8154;50.830;12.082;2023-12-20T02:31:44;98967.75;;;22.54;33.79
16100;BME280;8154;50.830;12.082;2023-12-20T02:34:18;98969.22;;;22.56;33.72
16100;BME280;8154;50.830;12.082;2023-12-20T02:36:50;98971.06;;;22.56;33.78
16100;BME280;8154;50.830;12.082;2023-12-20T02:39:17;98969.00;;;22.58;33.74
16100;BME280;8154;50.830;12.082;2023-12-20T02:41:55;98961.84;;;22.52;33.68
16100;BME280;8154;50.830;12.082;2023-12-20T02:44:32;98956.91;;;22.55;33.76
16100;BME280;8154;50.830;12.082;2023-12-20T02:47:03;98957.94;;;22.54;33.72
16100;BME280;8154;50.830;12.082;2023-12-20T02:49:42;98956.53;;;22.58;33.69
16100;BME280;8154;50.830;12.082;2023-12-20T02:52:12;98956.09;;;22.55;33.94
16100;BME280;8154;50.830;12.082;2023-12-20T02:54:40;98961.22;;;22.56;33.65
16100;BME280;8154;50.830;12.082;2023-12-20T02:57:07;98947.69;;;22.51;33.84
16100;BME280;8154;50.830;12.082;2023-12-20T02:59:41;98958.97;;;22.53;33.96
16100;BME280;8154;50.830;12.082;2023-12-20T03:02:09;98950.72;;;22.48;33.94
16100;BME280;8154;50.830;12.082;2023-12-20T03:04:36;98954.84;;;22.51;33.99
16100;BME280;8154;50.830;12.082;2023-12-20T03:07:36;98952.59;;;22.54;33.76
16100;BME280;8154;50.830;12.082;2023-12-20T03:10:04;98942.78;;;22.55;33.88
16100;BME280;8154;50.830;12.082;2023-12-20T03:12:32;98953.63;;;22.53;33.79
16100;BME280;8154;50.830;12.082;2023-12-20T03:15:02;98949.69;;;22.49;33.74
16100;BME280;8154;50.830;12.082;2023-12-20T03:17:48;98953.88;;;22.58;33.91
16100;BME280;8154;50.830;12.082;2023-12-20T03:20:20;98951.41;;;22.57;33.92
16100;BME280;8154;50.830;12.082;2023-12-20T03:22:55;98947.28;;;22.54;33.83
16100;BME280;8154;50.830;12.082;2023-12-20T03:25:29;98951.78;;;22.54;33.71
16100;BME280;8154;50.830;12.082;2023-12-20T03:27:59;98948.31;;;22.53;33.67
16100;BME280;8154;50.830;12.082;2023-12-20T03:30:27;98944.19;;;22.51;33.88
16100;BME280;8154;50.830;12.082;2023-12-20T03:33:08;98942.34;;;22.51;33.76
16100;BME280;8154;50.830;12.082;2023-12-20T03:35:45;98940.31;;;22.53;33.79
16100;BME280;8154;50.830;12.082;2023-12-20T03:38:21;98937.47;;;22.55;33.85
16100;BME280;8154;50.830;12.082;2023-12-20T03:40:51;98925.16;;;22.54;33.73
16100;BME280;8154;50.830;12.082;2023-12-20T03:43:20;98933.97;;;22.54;33.83
16100;BME280;8154;50.830;12.082;2023-12-20T03:45:49;98940.31;;;22.53;33.77
16100;BME280;8154;50.830;12.082;2023-12-20T03:48:32;98948.91;;;22.55;33.71
16100;BME280;8154;50.830;12.082;2023-12-20T03:51:18;98934.53;;;22.50;33.97
16100;BME280;8154;50.830;12.082;2023-12-20T03:53:45;98950.56;;;22.56;33.68
16100;BME280;8154;50.830;12.082;2023-12-20T03:56:11;98941.31;;;22.52;33.80
16100;BME280;8154;50.830;12.082;2023-12-20T03:58:51;98949.31;;;22.52;33.88
16100;BME280;8154;50.830;12.082;2023-12-20T04:01:26;98942.72;;;22.48;33.95
16100;BME280;8154;50.830;12.082;2023-12-20T04:03:57;98950.97;;;22.53;33.93
16100;BME280;8154;50.830;12.082;2023-12-20T04:06:24;98951.56;;;22.55;33.75
16100;BME280;8154;50.830;12.082;2023-12-20T04:09:10;98953.44;;;22.55;33.93
16100;BME280;8154;50.830;12.082;2023-12-20T04:11:37;98957.94;;;22.54;33.85
16100;BME280;8154;50.830;12.082;2023-12-20T04:14:05;98957.94;;;22.54;33.87
16100;BME280;8154;50.830;12.082;2023-12-20T04:16:51;98955.47;;;22.53;33.94
16100;BME280;8154;50.830;12.082;2023-12-20T04:19:22;98964.72;;;22.57;33.77
16100;BME280;8154;50.830;12.082;2023-12-20T04:21:48;98971.06;;;22.56;33.84
16100;BME280;8154;50.830;12.082;2023-12-20T04:24:34;98968.59;;;22.54;33.85
16100;BME280;8154;50.830;12.082;2023-12-20T04:27:14;98959.78;;;22.54;33.69
16100;BME280;8154;50.830;12.082;2023-12-20T04:29:41;98961.44;;;22.55;33.83
16100;BME280;8154;50.830;12.082;2023-12-20T04:32:07;98970.84;;;22.57;33.84
16100;BME280;8154;50.830;12.082;2023-12-20T04:34:52;98966.56;;;22.56;33.88
16100;BME280;8154;50.830;12.082;2023-12-20T04:37:22;98969.41;;;22.55;33.98
16100;BME280;8154;50.830;12.082;2023-12-20T04:39:48;98974.94;;;22.53;33.88
16100;BME280;8154;50.830;12.082;2023-12-20T04:42:22;98980.88;;;22.55;33.82
16100;BME280;8154;50.830;12.082;2023-12-20T04:44:53;98975.53;;;22.55;33.68
16100;BME280;8154;50.830;12.082;2023-12-20T04:47:35;98975.16;;;22.58;33.69
16100;BME280;8154;50.830;12.082;2023-12-20T04:50:09;98976.56;;;22.54;33.75
16100;BME280;8154;50.830;12.082;2023-12-20T04:52:37;98979.25;;;22.54;33.71
16100;BME280;8154;50.830;12.082;2023-12-20T04:55:23;98969.41;;;22.55;33.93
16100;BME280;8154;50.830;12.082;2023-12-20T04:57:50;98975.94;;;22.52;33.97
16100;BME280;8154;50.830;12.082;2023-12-20T05:00:17;98989.47;;;22.51;33.85
16100;BME280;8154;50.830;12.082;2023-12-20T05:02:51;98986.19;;;22.55;33.97
16100;BME280;8154;50.830;12.082;2023-12-20T05:05:18;98981.69;;;22.56;33.96
16100;BME280;8154;50.830;12.082;2023-12-20T05:07:53;98982.94;;;22.53;33.94
16100;BME280;8154;50.830;12.082;2023-12-20T05:10:38;98993.19;;;22.56;33.75
16100;BME280;8154;50.830;12.082;2023-12-20T05:13:13;98991.53;;;22.55;33.79
16100;BME280;8154;50.830;12.082;2023-12-20T05:15:52;98992.16;;;22.57;33.93
16100;BME280;8154;50.830;12.082;2023-12-20T05:18:27;98992.16;;;22.57;33.79
16100;BME280;8154;50.830;12.082;2023-12-20T05:21:13;99006.06;;;22.53;33.92
16100;BME280;8154;50.830;12.082;2023-12-20T05:23:45;99006.06;;;22.53;33.92
16100;BME280;8154;50.830;12.082;2023-12-20T05:26:31;99010.56;;;22.52;34.02
16100;BME280;8154;50.830;12.082;2023-12-20T05:29:17;99010.38;;;22.54;33.97
16100;BME280;8154;50.830;12.082;2023-12-20T05:31:43;99014.50;;;22.56;33.79
16100;BME280;8154;50.830;12.082;2023-12-20T05:34:09;99015.31;;;22.57;33.75
16100;BME280;8154;50.830;12.082;2023-12-20T05:36:43;99015.69;;;22.54;33.83
16100;BME280;8154;50.830;12.082;2023-12-20T05:39:09;99006.50;;;22.56;33.91
16100;BME280;8154;50.830;12.082;2023-12-20T05:41:38;99022.69;;;22.55;33.94
16100;BME280;8154;50.830;12.082;2023-12-20T05:44:05;99010.75;;;22.44;33.96
16100;BME280;8154;50.830;12.082;2023-12-20T05:46:31;99033.75;;;22.58;33.90
16100;BME280;8154;50.830;12.082;2023-12-20T05:48:57;99040.50;;;22.54;33.86
16100;BME280;8154;50.830;12.082;2023-12-20T05:51:23;99036.19;;;22.53;33.98
16100;BME280;8154;50.830;12.082;2023-12-20T05:54:05;99034.13;;;22.55;33.94
16100;BME280;8154;50.830;12.082;2023-12-20T05:56:31;99027.81;;;22.56;33.87
16100;BME280;8154;50.830;12.082;2023-12-20T05:59:03;99036.63;;;22.57;33.82
16100;BME280;8154;50.830;12.082;2023-12-20T06:01:38;99032.72;;;22.59;33.94
16100;BME280;8154;50.830;12.082;2023-12-20T06:04:04;99021.78;;;22.48;33.78
16100;BME280;8154;50.830;12.082;2023-12-20T06:06:33;99032.91;;;22.51;34.13
16100;BME280;8154;50.830;12.082;2023-12-20T06:09:00;99038.88;;;22.53;33.84
16100;BME280;8154;50.830;12.082;2023-12-20T06:11:32;99036.41;;;22.52;33.94
16100;BME280;8154;50.830;12.082;2023-12-20T06:13:58;99040.50;;;22.54;33.95
16100;BME280;8154;50.830;12.082;2023-12-20T06:16:24;99041.13;;;22.56;33.89
16100;BME280;8154;50.830;12.082;2023-12-20T06:19:04;99041.13;;;22.56;33.89
16100;BME280;8154;50.830;12.082;2023-12-20T06:21:42;99030.88;;;22.53;33.94
16100;BME280;8154;50.830;12.082;2023-12-20T06:24:28;99027.19;;;22.54;34.02
16100;BME280;8154;50.830;12.082;2023-12-20T06:26:54;99036.44;;;22.58;33.90
16100;BME280;8154;50.830;12.082;2023-12-20T06:29:23;99043.59;;;22.58;33.99
16100;BME280;8154;50.830;12.082;2023-12-20T06:32:22;99050.13;;;22.55;34.07
16100;BME280;8154;50.830;12.082;2023-12-20T06:34:50;99056.06;;;22.57;33.93
16100;BME280;8154;50.830;12.082;2023-12-20T06:37:17;99047.28;;;22.57;33.96
16100;BME280;8154;50.830;12.082;2023-12-20T06:39:43;99054.44;;;22.56;33.74
16100;BME280;8154;50.830;12.082;2023-12-20T06:42:09;99055.44;;;22.55;33.80
16100;BME280;8154;50.830;12.082;2023-12-20T06:44:48;99062.22;;;22.58;34.10
16100;BME280;8154;50.830;12.082;2023-12-20T06:47:14;99059.13;;;22.54;33.97
16100;BME280;8154;50.830;12.082;2023-12-20T06:49:40;99056.88;;;22.51;34.00
16100;BME280;8154;50.830;12.082;2023-12-20T06:52:06;99051.97;;;22.55;33.99
16100;BME280;8154;50.830;12.082;2023-12-20T06:54:32;99061.41;;;22.57;33.94
16100;BME280;8154;50.830;12.082;2023-12-20T06:57:00;99052.53;;;22.50;33.89
16100;BME280;8154;50.830;12.082;2023-12-20T06:59:29;99040.44;;;22.41;34.04
16100;BME280;8154;50.830;12.082;2023-12-20T07:02:08;99066.09;;;22.55;34.03
16100;BME280;8154;50.830;12.082;2023-12-20T07:04:40;99056.47;;;22.54;33.95
16100;BME280;8154;50.830;12.082;2023-12-20T07:07:06;99068.75;;;22.55;33.95
16100;BME280;8154;50.830;12.082;2023-12-20T07:09:33;99055.84;;;22.52;33.88
16100;BME280;8154;50.830;12.082;2023-12-20T07:12:00;99064.06;;;22.57;33.84
16100;BME280;8154;50.830;12.082;2023-12-20T07:14:26;99059.13;;;22.54;34.03
16100;BME280;8154;50.830;12.082;2023-12-20T07:20:34;99075.56;;;22.58;34.07
16100;BME280;8154;50.830;12.082;2023-12-20T07:22:59;99086.41;;;22.56;34.07
16100;BME280;8154;50.830;12.082;2023-12-20T07:25:26;99077.59;;;22.56;34.15
16100;BME280;8154;50.830;12.082;2023-12-20T07:27:54;99078.34;;;22.50;34.05
16100;BME280;8154;50.830;12.082;2023-12-20T07:30:20;99089.47;;;22.53;34.05
16100;BME280;8154;50.830;12.082;2023-12-20T07:32:47;99101.13;;;22.52;33.94
16100;BME280;8154;50.830;12.082;2023-12-20T07:35:15;99096.44;;;22.54;34.08
16100;BME280;8154;50.830;12.082;2023-12-20T07:37:42;99091.09;;;22.54;33.92
16100;BME280;8154;50.830;12.082;2023-12-20T07:40:08;99093.75;;;22.54;33.99
16100;BME280;8154;50.830;12.082;2023-12-20T07:42:45;99095.59;;;22.54;34.04
16100;BME280;8154;50.830;12.082;2023-12-20T07:45:31;99093.34;;;22.57;34.08
16100;BME280;8154;50.830;12.082;2023-12-20T07:48:16;99083.53;;;22.58;34.01
16100;BME280;8154;50.830;12.082;2023-12-20T07:50:43;99082.06;;;22.55;34.07
16100;BME280;8154;50.830;12.082;2023-12-20T07:53:23;99081.91;;;22.57;34.09
16100;BME280;8154;50.830;12.082;2023-12-20T07:55:59;99041.44;;;22.40;33.88
16100;BME280;8154;50.830;12.082;2023-12-20T07:58:37;99079.03;;;22.58;34.00
16100;BME280;8154;50.830;12.082;2023-12-20T08:01:20;99059.28;;;22.46;34.02
16100;BME280;8154;50.830;12.082;2023-12-20T08:03:48;99082.91;;;22.56;34.00
16100;BME280;8154;50.830;12.082;2023-12-20T08:06:14;99076.75;;;22.55;34.03
16100;BME280;8154;50.830;12.082;2023-12-20T08:08:44;99086.41;;;22.56;34.07
16100;BME280;8154;50.830;12.082;2023-12-20T08:11:11;99094.41;;;22.56;33.96
16100;BME280;8154;50.830;12.082;2023-12-20T08:13:41;99097.88;;;22.57;34.14
16100;BME280;8154;50.830;12.082;2023-12-20T08:16:07;99097.06;;;22.56;34.05
16100;BME280;8154;50.830;12.082;2023-12-20T08:18:53;99099.13;;;22.61;34.16
16100;BME280;8154;50.830;12.082;2023-12-20T08:21:34;99091.56;;;22.64;33.77
16100;BME280;8154;50.830;12.082;2023-12-20T08:24:00;99085.59;;;22.62;33.82
16100;BME280;8154;50.830;12.082;2023-12-20T08:26:35;99084.97;;;22.60;34.09
16100;BME280;8154;50.830;12.082;2023-12-20T08:29:03;99084.78;;;22.62;34.19
16100;BME280;8154;50.830;12.082;2023-12-20T08:31:29;99083.97;;;22.61;33.90
16100;BME280;8154;50.830;12.082;2023-12-20T08:33:56;99090.31;;;22.60;34.18
16100;BME280;8154;50.830;12.082;2023-12-20T08:36:22;99095.81;;;22.59;33.97
16100;BME280;8154;50.830;12.082;2023-12-20T08:38:49;99091.97;;;22.68;33.84
16100;BME280;8154;50.830;12.082;2023-12-20T08:41:17;99085.84;;;22.67;33.88
16100;BME280;8154;50.830;12.082;2023-12-20T08:43:43;99091.13;;;22.61;33.99
16100;BME280;8154;50.830;12.082;2023-12-20T08:46:15;99096.66;;;22.59;33.81
16100;BME280;8154;50.830;12.082;2023-12-20T08:48:56;99107.34;;;22.66;33.89
16100;BME280;8154;50.830;12.082;2023-12-20T08:51:43;99096.25;;;22.62;33.88
16100;BME280;8154;50.830;12.082;2023-12-20T08:54:09;99091.97;;;22.61;33.97
16100;BME280;8154;50.830;12.082;2023-12-20T08:56:35;99105.88;;;22.63;33.98
16100;BME280;8154;50.830;12.082;2023-12-20T08:59:02;99099.75;;;22.63;34.06
16100;BME280;8154;50.830;12.082;2023-12-20T09:01:41;99092.75;;;22.62;33.96
16100;BME280;8154;50.830;12.082;2023-12-20T09:04:26;99089.91;;;22.63;33.73
16100;BME280;8154;50.830;12.082;2023-12-20T09:06:53;99091.53;;;22.58;33.95
16100;BME280;8154;50.830;12.082;2023-12-20T09:09:20;99095.44;;;22.62;33.94
16100;BME280;8154;50.830;12.082;2023-12-20T09:11:46;99080.69;;;22.59;33.96
16100;BME280;8154;50.830;12.082;2023-12-20T09:14:21;99083.34;;;22.59;34.05
16100;BME280;8154;50.830;12.082;2023-12-20T09:16:50;99073.13;;;22.63;33.97
16100;BME280;8154;50.830;12.082;2023-12-20T09:19:20;99070.25;;;22.64;33.84
16100;BME280;8154;50.830;12.082;2023-12-20T09:22:06;99069.84;;;22.67;33.90
16100;BME280;8154;50.830;12.082;2023-12-20T09:24:34;99072.91;;;22.64;33.77
16100;BME280;8154;50.830;12.082;2023-12-20T09:27:00;99089.50;;;22.66;33.83
16100;BME280;8154;50.830;12.082;2023-12-20T09:29:28;99082.34;;;22.67;33.92
16100;BME280;8154;50.830;12.082;2023-12-20T09:32:14;99095.03;;;22.65;33.97
16100;BME280;8154;50.830;12.082;2023-12-20T09:34:53;99093.00;;;22.67;33.79
16100;BME280;8154;50.830;12.082;2023-12-20T09:37:22;99083.38;;;22.66;33.83
16100;BME280;8154;50.830;12.082;2023-12-20T09:39:59;99076.38;;;22.65;33.91
16100;BME280;8154;50.830;12.082;2023-12-20T09:42:48;99075.19;;;22.67;33.94
16100;BME280;8154;50.830;12.082;2023-12-20T09:45:19;99070.66;;;22.61;33.87
16100;BME280;8154;50.830;12.082;2023-12-20T09:47:55;99066.75;;;22.64;34.03
16100;BME280;8154;50.830;12.082;2023-12-20T09:50:43;99062.88;;;22.66;33.84
16100;BME280;8154;50.830;12.082;2023-12-20T09:53:21;99027.75;;;22.50;33.91
16100;BME280;8154;50.830;12.082;2023-12-20T09:56:08;99046.47;;;22.69;33.69
16100;BME280;8154;50.830;12.082;2023-12-20T09:58:41;99055.72;;;22.67;33.88
16100;BME280;8154;50.830;12.082;2023-12-20T10:01:22;99041.34;;;22.61;33.82
16100;BME280;8154;50.830;12.082;2023-12-20T10:04:10;99054.47;;;22.63;33.85
16100;BME280;8154;50.830;12.082;2023-12-20T10:06:44;99049.16;;;22.63;33.98
16100;BME280;8154;50.830;12.082;2023-12-20T10:09:23;99049.34;;;22.61;33.88
16100;BME280;8154;50.830;12.082;2023-12-20T10:12:06;99039.50;;;22.62;33.88
16100;BME280;8154;50.830;12.082;2023-12-20T10:14:32;99032.72;;;22.59;33.80
16100;BME280;8154;50.830;12.082;2023-12-20T10:17:03;99035.00;;;22.62;33.95
16100;BME280;8154;50.830;12.082;2023-12-20T10:19:29;99037.88;;;22.67;33.94
16100;BME280;8154;50.830;12.082;2023-12-20T10:22:18;99023.13;;;22.71;33.77
16100;BME280;8154;50.830;12.082;2023-12-20T10:24:45;99041.16;;;22.69;33.80
16100;BME280;8154;50.830;12.082;2023-12-20T10:27:14;99022.31;;;22.71;33.71
16100;BME280;8154;50.830;12.082;2023-12-20T10:29:40;99027.44;;;22.72;33.82
16100;BME280;8154;50.830;12.082;2023-12-20T10:32:25;99019.84;;;22.69;33.94
16100;BME280;8154;50.830;12.082;2023-12-20T10:34:58;99010.44;;;22.73;33.75
16100;BME280;8154;50.830;12.082;2023-12-20T10:37:25;98996.28;;;22.66;33.88
16100;BME280;8154;50.830;12.082;2023-12-20T10:39:54;99005.75;;;22.76;33.97
16100;BME280;8154;50.830;12.082;2023-12-20T10:42:27;99002.25;;;22.75;33.68
16100;BME280;8154;50.830;12.082;2023-12-20T10:44:56;99005.75;;;22.76;33.73
16100;BME280;8154;50.830;12.082;2023-12-20T10:47:24;98989.13;;;22.73;33.78
16100;BME280;8154;50.830;12.082;2023-12-20T10:49:52;98984.44;;;22.76;33.78
16100;BME280;8154;50.830;12.082;2023-12-20T10:52:29;98974.78;;;22.81;33.76
16100;BME280;8154;50.830;12.082;2023-12-20T10:55:03;98982.16;;;22.79;33.74
16100;BME280;8154;50.830;12.082;2023-12-20T10:57:30;98976.44;;;22.76;33.74
16100;BME280;8154;50.830;12.082;2023-12-20T11:00:15;98991.41;;;22.83;33.75
16100;BME280;8154;50.830;12.082;2023-12-20T11:02:42;98979.94;;;22.83;33.85
16100;BME280;8154;50.830;12.082;2023-12-20T11:15:08;98981.75;;;22.82;33.65
16100;BME280;8154;50.830;12.082;2023-12-20T11:17:34;98979.69;;;22.77;33.77
16100;BME280;8154;50.830;12.082;2023-12-20T11:20:05;98984.03;;;22.79;33.72
16100;BME280;8154;50.830;12.082;2023-12-20T11:22:32;98965.59;;;22.77;33.86
16100;BME280;8154;50.830;12.082;2023-12-20T11:29:33;98964.16;;;22.88;33.61
16100;BME280;8154;50.830;12.082;2023-12-20T11:32:03;98968.84;;;22.86;33.68
16100;BME280;8154;50.830;12.082;2023-12-20T11:34:33;98968.22;;;22.84;33.92
16100;BME280;8154;50.830;12.082;2023-12-20T11:37:02;98953.91;;;22.85;33.88
16100;BME280;8154;50.830;12.082;2023-12-20T11:39:28;98946.09;;;22.77;33.82
16100;BME280;8154;50.830;12.082;2023-12-20T11:41:56;98959.63;;;22.88;33.87
16100;BME280;8154;50.830;12.082;2023-12-20T11:44:25;98946.72;;;22.85;33.61
16100;BME280;8154;50.830;12.082;2023-12-20T11:46:51;98943.03;;;22.86;33.93
16100;BME280;8154;50.830;12.082;2023-12-20T11:49:31;98938.94;;;22.84;33.62
16100;BME280;8154;50.830;12.082;2023-12-20T11:51:57;98932.38;;;22.86;33.66
16100;BME280;8154;50.830;12.082;2023-12-20T11:54:35;98930.72;;;22.85;33.76
16100;BME280;8154;50.830;12.082;2023-12-20T11:57:15;98916.59;;;22.85;33.85
16100;BME280;8154;50.830;12.082;2023-12-20T11:59:55;98895.91;;;22.80;33.83
16100;BME280;8154;50.830;12.082;2023-12-20T12:02:33;98902.03;;;22.87;33.63
16100;BME280;8154;50.830;12.082;2023-12-20T12:08:22;98899.38;;;22.87;33.87
16100;BME280;8154;50.830;12.082;2023-12-20T12:10:49;98900.00;;;22.89;33.87
16100;BME280;8154;50.830;12.082;2023-12-20T12:17:21;98876.81;;;22.90;33.46
16100;BME280;8154;50.830;12.082;2023-12-20T12:20:06;98872.34;;;22.77;33.70
16100;BME280;8154;50.830;12.082;2023-12-20T12:23:04;98888.94;;;22.92;33.69
16100;BME280;8154;50.830;12.082;2023-12-20T12:25:50;98899.78;;;22.91;33.74
16100;BME280;8154;50.830;12.082;2023-12-20T12:28:17;98904.91;;;22.92;33.78
16100;BME280;8154;50.830;12.082;2023-12-20T12:30:59;98907.38;;;22.94;33.68
16100;BME280;8154;50.830;12.082;2023-12-20T12:33:26;98903.88;;;22.93;33.73
16100;BME280;8154;50.830;12.082;2023-12-20T12:35:53;98903.06;;;22.93;33.64
16100;BME280;8154;50.830;12.082;2023-12-20T12:38:35;98913.72;;;22.93;33.63
16100;BME280;8154;50.830;12.082;2023-12-20T12:47:57;98907.38;;;22.87;33.68
16100;BME280;8154;50.830;12.082;2023-12-20T12:50:51;98882.97;;;22.84;33.78
16100;BME280;8154;50.830;12.082;2023-12-20T12:53:32;98888.94;;;22.86;33.89
16100;BME280;8154;50.830;12.082;2023-12-20T12:56:18;98884.63;;;22.85;33.69
16100;BME280;8154;50.830;12.082;2023-12-20T12:58:44;98884.22;;;22.88;33.71
16100;BME280;8154;50.830;12.082;2023-12-20T13:01:20;98878.69;;;22.89;33.81
16100;BME280;8154;50.830;12.082;2023-12-20T13:03:47;98877.84;;;22.89;33.85
16100;BME280;8154;50.830;12.082;2023-12-20T13:06:33;98882.97;;;22.90;33.76
16100;BME280;8154;50.830;12.082;2023-12-20T13:09:17;98877.03;;;22.88;33.81
16100;BME280;8154;50.830;12.082;2023-12-20T13:15:53;98865.56;;;22.88;33.62
16100;BME280;8154;50.830;12.082;2023-12-20T13:18:22;98845.50;;;22.79;33.78
16100;BME280;8154;50.830;12.082;2023-12-20T13:20:58;98856.31;;;22.84;33.83
16100;BME280;8154;50.830;12.082;2023-12-20T13:23:44;98850.59;;;22.87;33.83
16100;BME280;8154;50.830;12.082;2023-12-20T13:26:14;98848.16;;;22.79;33.87
16100;BME280;8154;50.830;12.082;2023-12-20T13:28:40;98846.28;;;22.79;33.77
16100;BME280;8154;50.830;12.082;2023-12-20T13:31:26;98842.00;;;22.78;33.98
16100;BME280;8154;50.830;12.082;2023-12-20T13:33:52;98842.63;;;22.80;33.95
16100;BME280;8154;50.830;12.082;2023-12-20T13:36:18;98838.50;;;22.84;33.90
16100;BME280;8154;50.830;12.082;2023-12-20T13:39:05;98832.34;;;22.84;33.89
16100;BME280;8154;50.830;12.082;2023-12-20T13:41:32;98834.84;;;22.79;33.94
16100;BME280;8154;50.830;12.082;2023-12-20T13:44:48;98830.94;;;22.81;33.88
16100;BME280;8154;50.830;12.082;2023-12-20T13:47:39;98837.09;;;22.82;33.78
16100;BME280;8154;50.830;12.082;2023-12-20T13:50:06;98827.84;;;22.77;33.73
16100;BME280;8154;50.830;12.082;2023-12-20T13:52:51;98826.22;;;22.83;33.54
16100;BME280;8154;50.830;12.082;2023-12-20T13:55:37;98835.22;;;22.82;33.77
16100;BME280;8154;50.830;12.082;2023-12-20T13:58:05;98829.09;;;22.75;33.86
16100;BME280;8154;50.830;12.082;2023-12-20T14:00:31;98835.84;;;22.77;33.84
16100;BME280;8154;50.830;12.082;2023-12-20T14:02:57;98836.25;;;22.74;33.76
16100;BME280;8154;50.830;12.082;2023-12-20T14:05:24;98836.66;;;22.71;33.88
16100;BME280;8154;50.830;12.082;2023-12-20T14:07:51;98833.81;;;22.80;33.73
16100;BME280;8154;50.830;12.082;2023-12-20T14:10:22;98851.22;;;22.82;33.70